createdAt,value
2018-08-22T00:00:32.635Z,1002.07
2018-08-22T00:01:33.624Z,1002.08
2018-08-22T00:02:34.568Z,1002.02
2018-08-22T00:03:32.760Z,1002.08
2018-08-22T00:04:33.126Z,1002.05
2018-08-22T00:05:29.656Z,1002.1
2018-08-22T00:06:40.952Z,1002.07
2018-08-22T00:07:56.522Z,1002.02
2018-08-22T00:08:51.789Z,1001.96
2018-08-22T00:09:50.880Z,1002.01
2018-08-22T00:10:51.200Z,1002.02
2018-08-22T00:11:48.777Z,1002.02
2018-08-22T00:12:50.842Z,1002.05
2018-08-22T00:13:49.651Z,1002.07
2018-08-22T00:14:49.437Z,1002.04
2018-08-22T00:15:48.269Z,1001.98
2018-08-22T00:16:47.787Z,1001.99
2018-08-22T00:17:46.371Z,1002.11
2018-08-22T00:19:02.327Z,1002.07
2018-08-22T00:20:01.518Z,1001.99
2018-08-22T00:20:59.520Z,1002.07
2018-08-22T00:21:58.270Z,1002.08
2018-08-22T00:22:55.649Z,1001.99
2018-08-22T00:23:53.602Z,1002.07
2018-08-22T00:24:53.095Z,1002.02
2018-08-22T00:25:56.271Z,1001.98
2018-08-22T00:26:57.889Z,1002.02
2018-08-22T00:27:55.986Z,1002.01
2018-08-22T00:28:55.506Z,1001.99
2018-08-22T00:29:59.392Z,1001.98
2018-08-22T00:31:05.310Z,1001.98
2018-08-22T00:32:01.223Z,1001.92
2018-08-22T00:33:25.746Z,1001.96
2018-08-22T00:34:16.346Z,1001.96
2018-08-22T00:35:17.064Z,1001.92
2018-08-22T00:36:12.369Z,1001.86
2018-08-22T00:37:13.387Z,1001.89
2018-08-22T00:38:16.183Z,1001.93
2018-08-22T00:39:28.446Z,1001.9
2018-08-22T00:40:24.554Z,1001.92
2018-08-22T00:41:23.254Z,1001.87
2018-08-22T00:42:28.076Z,1001.81
2018-08-22T00:43:32.349Z,1001.89
2018-08-22T00:44:30.037Z,1001.92
2018-08-22T00:45:27.222Z,1001.96
2018-08-22T00:46:28.294Z,1001.92
2018-08-22T00:47:24.388Z,1001.78
2018-08-22T00:48:35.096Z,1001.81
2018-08-22T00:49:32.417Z,1001.95
2018-08-22T00:50:31.747Z,1001.95
2018-08-22T00:51:30.720Z,1001.86
2018-08-22T00:52:27.710Z,1001.9
2018-08-22T00:53:28.786Z,1001.93
2018-08-22T00:54:31.266Z,1001.92
2018-08-22T00:55:29.925Z,1001.89
2018-08-22T00:56:28.425Z,1001.92
2018-08-22T00:57:26.204Z,1001.9
2018-08-22T00:58:24.471Z,1001.87
2018-08-22T00:59:27.326Z,1001.9
2018-08-22T01:00:23.006Z,1001.89
2018-08-22T01:01:20.828Z,1001.9
2018-08-22T01:02:20.815Z,1001.9
2018-08-22T01:03:21.477Z,1001.93
2018-08-22T01:04:21.421Z,1001.92
2018-08-22T01:05:39.494Z,1001.92
2018-08-22T01:06:35.175Z,1001.93
2018-08-22T01:07:38.610Z,1001.89
2018-08-22T01:08:36.901Z,1001.92
2018-08-22T01:09:38.080Z,1001.9
2018-08-22T01:10:36.957Z,1001.92
2018-08-22T01:11:37.384Z,1001.86
2018-08-22T01:12:48.011Z,1001.89
2018-08-22T01:13:46.355Z,1001.87
2018-08-22T01:14:43.716Z,1001.89
2018-08-22T01:15:40.650Z,1001.9
2018-08-22T01:16:53.081Z,1001.84
2018-08-22T01:17:47.657Z,1001.87
2018-08-22T01:18:46.222Z,1001.95
2018-08-22T01:19:44.147Z,1001.89
2018-08-22T01:20:43.823Z,1001.78
2018-08-22T01:21:42.912Z,1001.86
2018-08-22T01:22:49.241Z,1001.86
2018-08-22T01:23:48.580Z,1001.89
2018-08-22T01:24:47.803Z,1001.86
2018-08-22T01:25:47.296Z,1001.87
2018-08-22T01:26:53.195Z,1001.84
2018-08-22T01:28:05.780Z,1001.74
2018-08-22T01:29:21.669Z,1001.75
2018-08-22T01:30:19.929Z,1001.77
2018-08-22T01:31:19.164Z,1001.75
2018-08-22T01:32:20.427Z,1001.8
2018-08-22T01:33:18.400Z,1001.74
2018-08-22T01:34:31.621Z,1001.83
2018-08-22T01:35:31.770Z,1001.81
2018-08-22T01:36:34.538Z,1001.77
2018-08-22T01:37:46.656Z,1001.75
2018-08-22T01:38:42.140Z,1001.8
2018-08-22T01:39:50.677Z,1001.8
2018-08-22T01:40:48.499Z,1001.75
2018-08-22T01:41:49.802Z,1001.84
2018-08-22T01:43:02.994Z,1001.78
2018-08-22T01:43:57.563Z,1001.69
2018-08-22T01:44:58.754Z,1001.75
2018-08-22T01:46:08.048Z,1001.74
2018-08-22T01:47:06.540Z,1001.75
2018-08-22T01:48:05.267Z,1001.78
2018-08-22T01:49:12.200Z,1001.78
2018-08-22T01:50:06.964Z,1001.75
2018-08-22T01:51:09.332Z,1001.69
2018-08-22T01:52:09.320Z,1001.72
2018-08-22T01:53:08.760Z,1001.81
2018-08-22T01:54:17.844Z,1001.75
2018-08-22T01:55:21.312Z,1001.74
2018-08-22T01:56:20.194Z,1001.69
2018-08-22T01:57:34.669Z,1001.74
2018-08-22T01:58:29.358Z,1001.8
2018-08-22T01:59:27.079Z,1001.68
2018-08-22T02:00:26.256Z,1001.78
2018-08-22T02:01:23.989Z,1001.66
2018-08-22T02:02:21.520Z,1001.71
2018-08-22T02:03:20.735Z,1001.74
2018-08-22T02:04:17.914Z,1001.66
2018-08-22T02:05:18.841Z,1001.68
2018-08-22T02:06:19.887Z,1001.68
2018-08-22T02:07:18.448Z,1001.66
2018-08-22T02:08:14.119Z,1001.71
2018-08-22T02:09:27.582Z,1001.68
2018-08-22T02:10:27.181Z,1001.72
2018-08-22T02:11:25.357Z,1001.69
2018-08-22T02:12:25.664Z,1001.66
2018-08-22T02:13:30.075Z,1001.69
2018-08-22T02:14:29.129Z,1001.59
2018-08-22T02:15:29.930Z,1001.63
2018-08-22T02:16:31.746Z,1001.63
2018-08-22T02:17:28.120Z,1001.62
2018-08-22T02:18:28.619Z,1001.57
2018-08-22T02:19:35.639Z,1001.54
2018-08-22T02:20:33.327Z,1001.56
2018-08-22T02:21:45.179Z,1001.51
2018-08-22T02:22:39.655Z,1001.59
2018-08-22T02:23:37.156Z,1001.57
2018-08-22T02:24:35.041Z,1001.53
2018-08-22T02:25:33.929Z,1001.54
2018-08-22T02:26:32.720Z,1001.54
2018-08-22T02:27:32.360Z,1001.6
2018-08-22T02:28:30.459Z,1001.51
2018-08-22T02:29:28.194Z,1001.59
2018-08-22T02:30:36.517Z,1001.5
2018-08-22T02:31:48.068Z,1001.56
2018-08-22T02:32:52.699Z,1001.46
2018-08-22T02:33:53.676Z,1001.53
2018-08-22T02:35:09.431Z,1001.48
2018-08-22T02:36:09.826Z,1001.46
2018-08-22T02:37:16.556Z,1001.54
2018-08-22T02:38:19.943Z,1001.43
2018-08-22T02:39:14.557Z,1001.53
2018-08-22T02:40:17.215Z,1001.42
2018-08-22T02:41:15.009Z,1001.45
2018-08-22T02:42:18.223Z,1001.43
2018-08-22T02:43:16.531Z,1001.48
2018-08-22T02:44:16.170Z,1001.5
2018-08-22T02:45:15.215Z,1001.39
2018-08-22T02:46:16.550Z,1001.5
2018-08-22T02:47:28.562Z,1001.5
2018-08-22T02:48:24.004Z,1001.48
2018-08-22T02:49:23.923Z,1001.46
2018-08-22T02:50:22.943Z,1001.45
2018-08-22T02:51:23.335Z,1001.42
2018-08-22T02:52:22.196Z,1001.46
2018-08-22T02:53:20.120Z,1001.48
2018-08-22T02:54:25.165Z,1001.4
2018-08-22T02:55:26.522Z,1001.47
2018-08-22T02:56:33.867Z,1001.51
2018-08-22T02:57:34.552Z,1001.47
2018-08-22T02:58:41.930Z,1001.51
2018-08-22T02:59:44.279Z,1001.43
2018-08-22T03:00:57.817Z,1001.46
2018-08-22T03:01:53.015Z,1001.45
2018-08-22T03:02:51.267Z,1001.43
2018-08-22T03:03:51.749Z,1001.42
2018-08-22T03:04:50.777Z,1001.43
2018-08-22T03:05:48.792Z,1001.4
2018-08-22T03:06:49.221Z,1001.36
2018-08-22T03:07:50.189Z,1001.48
2018-08-22T03:08:53.212Z,1001.43
2018-08-22T03:09:51.338Z,1001.36
2018-08-22T03:10:55.060Z,1001.36
2018-08-22T03:11:50.597Z,1001.42
2018-08-22T03:13:01.697Z,1001.4
2018-08-22T03:14:00.003Z,1001.45
2018-08-22T03:15:02.107Z,1001.37
2018-08-22T03:16:03.801Z,1001.39
2018-08-22T03:17:04.997Z,1001.34
2018-08-22T03:18:03.828Z,1001.37
2018-08-22T03:19:05.066Z,1001.36
2018-08-22T03:20:07.654Z,1001.43
2018-08-22T03:21:17.340Z,1001.34
2018-08-22T03:22:19.219Z,1001.34
2018-08-22T03:23:18.599Z,1001.37
2018-08-22T03:24:23.646Z,1001.36
2018-08-22T03:25:18.128Z,1001.3
2018-08-22T03:26:34.139Z,1001.37
2018-08-22T03:27:30.434Z,1001.33
2018-08-22T03:28:28.478Z,1001.39
2018-08-22T03:29:26.680Z,1001.4
2018-08-22T03:30:24.542Z,1001.33
2018-08-22T03:31:19.973Z,1001.31
2018-08-22T03:32:21.937Z,1001.34
2018-08-22T03:33:25.153Z,1001.34
2018-08-22T03:34:24.520Z,1001.37
2018-08-22T03:35:22.391Z,1001.33
2018-08-22T03:36:31.687Z,1001.37
2018-08-22T03:37:30.550Z,1001.31
2018-08-22T03:38:42.168Z,1001.27
2018-08-22T03:39:38.116Z,1001.28
2018-08-22T03:40:40.812Z,1001.25
2018-08-22T03:41:44.077Z,1001.21
2018-08-22T03:42:41.903Z,1001.34
2018-08-22T03:43:40.311Z,1001.27
2018-08-22T03:44:39.428Z,1001.24
2018-08-22T03:45:41.264Z,1001.24
2018-08-22T03:46:42.287Z,1001.24
2018-08-22T03:47:39.046Z,1001.22
2018-08-22T03:48:37.404Z,1001.21
2018-08-22T03:49:50.009Z,1001.24
2018-08-22T03:50:48.207Z,1001.24
2018-08-22T03:51:47.716Z,1001.25
2018-08-22T03:52:56.169Z,1001.21
2018-08-22T03:53:59.412Z,1001.28
2018-08-22T03:54:58.785Z,1001.19
2018-08-22T03:55:58.933Z,1001.31
2018-08-22T03:56:57.777Z,1001.24
2018-08-22T03:58:01.089Z,1001.31
2018-08-22T03:59:02.260Z,1001.31
2018-08-22T04:00:02.400Z,1001.25
2018-08-22T04:01:00.924Z,1001.19
2018-08-22T04:02:02.024Z,1001.27
2018-08-22T04:03:03.316Z,1001.27
2018-08-22T04:04:12.653Z,1001.28
2018-08-22T04:05:13.694Z,1001.24
2018-08-22T04:06:12.693Z,1001.36
2018-08-22T04:07:13.486Z,1001.18
2018-08-22T04:08:18.548Z,1001.25
2018-08-22T04:09:15.048Z,1001.25
2018-08-22T04:10:12.793Z,1001.25
2018-08-22T04:11:18.738Z,1001.21
2018-08-22T04:12:18.550Z,1001.22
2018-08-22T04:13:36.196Z,1001.31
2018-08-22T04:14:30.866Z,1001.28
2018-08-22T04:15:28.709Z,1001.31
2018-08-22T04:16:29.898Z,1001.25
2018-08-22T04:17:31.070Z,1001.31
2018-08-22T04:18:33.329Z,1001.33
2018-08-22T04:19:33.040Z,1001.34
2018-08-22T04:20:27.607Z,1001.27
2018-08-22T04:21:28.379Z,1001.3
2018-08-22T04:22:29.276Z,1001.28
2018-08-22T04:23:40.167Z,1001.31
2018-08-22T04:24:36.816Z,1001.36
2018-08-22T04:25:52.208Z,1001.33
2018-08-22T04:26:54.772Z,1001.28
2018-08-22T04:27:52.830Z,1001.27
2018-08-22T04:28:50.786Z,1001.33
2018-08-22T04:29:52.545Z,1001.22
2018-08-22T04:30:52.313Z,1001.36
2018-08-22T04:31:52.708Z,1001.33
2018-08-22T04:32:50.763Z,1001.22
2018-08-22T04:33:46.716Z,1001.31
2018-08-22T04:34:46.708Z,1001.31
2018-08-22T04:35:51.073Z,1001.25
2018-08-22T04:36:57.747Z,1001.25
2018-08-22T04:37:55.496Z,1001.25
2018-08-22T04:39:07.082Z,1001.25
2018-08-22T04:40:05.491Z,1001.28
2018-08-22T04:41:07.567Z,1001.3
2018-08-22T04:42:09.071Z,1001.3
2018-08-22T04:43:07.741Z,1001.33
2018-08-22T04:44:13.379Z,1001.3
2018-08-22T04:45:18.797Z,1001.27
2018-08-22T04:46:18.047Z,1001.27
2018-08-22T04:47:16.627Z,1001.25
2018-08-22T04:48:21.963Z,1001.25
2018-08-22T04:49:42.885Z,1001.4
2018-08-22T04:50:45.601Z,1001.28
2018-08-22T04:51:51.538Z,1001.31
2018-08-22T04:52:49.283Z,1001.27
2018-08-22T04:53:48.947Z,1001.3
2018-08-22T04:54:47.162Z,1001.22
2018-08-22T04:55:48.797Z,1001.27
2018-08-22T04:56:48.636Z,1001.21
2018-08-22T04:57:50.866Z,1001.24
2018-08-22T04:58:48.785Z,1001.22
2018-08-22T04:59:46.964Z,1001.25
2018-08-22T05:00:41.820Z,1001.22
2018-08-22T05:01:53.499Z,1001.22
2018-08-22T05:02:47.998Z,1001.21
2018-08-22T05:03:49.223Z,1001.31
2018-08-22T05:04:49.407Z,1001.21
2018-08-22T05:05:51.649Z,1001.24
2018-08-22T05:06:51.611Z,1001.3
2018-08-22T05:07:53.743Z,1001.27
2018-08-22T05:08:51.583Z,1001.25
2018-08-22T05:09:49.674Z,1001.22
2018-08-22T05:10:44.971Z,1001.21
2018-08-22T05:11:57.623Z,1001.13
2018-08-22T05:12:52.618Z,1001.19
2018-08-22T05:13:54.401Z,1001.19
2018-08-22T05:14:53.817Z,1001.21
2018-08-22T05:15:52.748Z,1001.24
2018-08-22T05:16:50.961Z,1001.18
2018-08-22T05:17:58.305Z,1001.18
2018-08-22T05:18:55.896Z,1001.15
2018-08-22T05:19:55.758Z,1001.15
2018-08-22T05:20:58.882Z,1001.16
2018-08-22T05:22:02.185Z,1001.25
2018-08-22T05:22:59.538Z,1001.25
2018-08-22T05:23:54.925Z,1001.19
2018-08-22T05:24:56.647Z,1001.15
2018-08-22T05:25:55.818Z,1001.15
2018-08-22T05:27:04.169Z,1001.21
2018-08-22T05:28:00.802Z,1001.16
2018-08-22T05:29:04.073Z,1001.19
2018-08-22T05:29:58.946Z,1001.3
2018-08-22T05:31:14.844Z,1001.24
2018-08-22T05:32:09.223Z,1001.25
2018-08-22T05:33:07.517Z,1001.31
2018-08-22T05:34:07.688Z,1001.22
2018-08-22T05:35:06.477Z,1001.22
2018-08-22T05:36:07.771Z,1001.21
2018-08-22T05:37:07.370Z,1001.25
2018-08-22T05:38:12.206Z,1001.25
2018-08-22T05:39:11.990Z,1001.24
2018-08-22T05:40:14.454Z,1001.19
2018-08-22T05:41:12.231Z,1001.24
2018-08-22T05:42:07.813Z,1001.24
2018-08-22T05:43:33.261Z,1001.24
2018-08-22T05:44:30.248Z,1001.21
2018-08-22T05:45:32.731Z,1001.19
2018-08-22T05:46:34.871Z,1001.22
2018-08-22T05:47:34.733Z,1001.16
2018-08-22T05:48:36.043Z,1001.24
2018-08-22T05:49:35.034Z,1001.3
2018-08-22T05:50:32.982Z,1001.21
2018-08-22T05:51:36.490Z,1001.19
2018-08-22T05:52:31.036Z,1001.21
2018-08-22T05:53:47.278Z,1001.25
2018-08-22T05:54:44.272Z,1001.24
2018-08-22T05:55:41.920Z,1001.21
2018-08-22T05:56:40.722Z,1001.15
2018-08-22T05:57:39.894Z,1001.27
2018-08-22T05:58:37.465Z,1001.24
2018-08-22T05:59:38.050Z,1001.22
2018-08-22T06:00:37.095Z,1001.22
2018-08-22T06:01:40.058Z,1001.15
2018-08-22T06:02:38.962Z,1001.22
2018-08-22T06:03:40.281Z,1001.27
2018-08-22T06:04:53.077Z,1001.25
2018-08-22T06:05:48.795Z,1001.19
2018-08-22T06:06:46.318Z,1001.24
2018-08-22T06:07:45.427Z,1001.28
2018-08-22T06:08:43.920Z,1001.3
2018-08-22T06:09:44.714Z,1001.31
2018-08-22T06:10:46.526Z,1001.25
2018-08-22T06:11:47.954Z,1001.25
2018-08-22T06:12:46.324Z,1001.22
2018-08-22T06:13:47.357Z,1001.25
2018-08-22T06:14:45.115Z,1001.27
2018-08-22T06:15:44.035Z,1001.27
2018-08-22T06:16:41.348Z,1001.25
2018-08-22T06:17:40.773Z,1001.22
2018-08-22T06:18:46.504Z,1001.24
2018-08-22T06:19:41.401Z,1001.28
2018-08-22T06:20:59.755Z,1001.21
2018-08-22T06:21:58.022Z,1001.31
2018-08-22T06:22:56.977Z,1001.36
2018-08-22T06:23:54.689Z,1001.31
2018-08-22T06:24:53.703Z,1001.28
2018-08-22T06:26:01.098Z,1001.25
2018-08-22T06:27:00.376Z,1001.27
2018-08-22T06:28:02.819Z,1001.31
2018-08-22T06:29:03.564Z,1001.3
2018-08-22T06:30:03.627Z,1001.22
2018-08-22T06:30:59.951Z,1001.27
2018-08-22T06:32:11.485Z,1001.31
2018-08-22T06:33:07.836Z,1001.22
2018-08-22T06:34:10.757Z,1001.25
2018-08-22T06:35:16.692Z,1001.25
2018-08-22T06:36:17.146Z,1001.27
2018-08-22T06:37:15.023Z,1001.25
2018-08-22T06:38:17.034Z,1001.27
2018-08-22T06:39:14.874Z,1001.28
2018-08-22T06:40:20.185Z,1001.22
2018-08-22T06:41:18.643Z,1001.27
2018-08-22T06:42:19.232Z,1001.24
2018-08-22T06:43:37.687Z,1001.24
2018-08-22T06:44:33.041Z,1001.22
2018-08-22T06:45:31.297Z,1001.19
2018-08-22T06:46:30.929Z,1001.31
2018-08-22T06:47:33.074Z,1001.25
2018-08-22T06:48:30.731Z,1001.19
2018-08-22T06:49:29.052Z,1001.27
2018-08-22T06:50:32.146Z,1001.24
2018-08-22T06:51:36.305Z,1001.27
2018-08-22T06:52:34.967Z,1001.22
2018-08-22T06:53:33.107Z,1001.22
2018-08-22T06:54:31.225Z,1001.21
2018-08-22T06:55:33.068Z,1001.22
2018-08-22T06:56:56.945Z,1001.25
2018-08-22T06:57:51.758Z,1001.25
2018-08-22T06:58:49.942Z,1001.24
2018-08-22T06:59:47.580Z,1001.24
2018-08-22T07:00:47.044Z,1001.22
2018-08-22T07:01:46.581Z,1001.33
2018-08-22T07:02:51.808Z,1001.21
2018-08-22T07:03:47.474Z,1001.27
2018-08-22T07:04:49.402Z,1001.22
2018-08-22T07:05:48.050Z,1001.25
2018-08-22T07:06:47.164Z,1001.19
2018-08-22T07:07:50.406Z,1001.22
2018-08-22T07:08:48.408Z,1001.24
2018-08-22T07:09:46.140Z,1001.15
2018-08-22T07:10:48.032Z,1001.16
2018-08-22T07:11:46.045Z,1001.22
2018-08-22T07:12:47.799Z,1001.18
2018-08-22T07:13:45.336Z,1001.18
2018-08-22T07:15:03.396Z,1001.15
2018-08-22T07:15:57.944Z,1001.15
2018-08-22T07:17:06.048Z,1001.09
2018-08-22T07:18:04.593Z,1001.21
2018-08-22T07:19:10.052Z,1001.05
2018-08-22T07:20:09.512Z,1001.21
2018-08-22T07:21:07.471Z,1001.16
2018-08-22T07:22:06.004Z,1001.13
2018-08-22T07:23:06.655Z,1001.12
2018-08-22T07:24:03.789Z,1001.1
2018-08-22T07:25:02.708Z,1001.21
2018-08-22T07:26:13.971Z,1001.28
2018-08-22T07:27:11.463Z,1001.15
2018-08-22T07:28:09.733Z,1001.31
2018-08-22T07:29:07.670Z,1001.24
2018-08-22T07:30:06.987Z,1001.27
2018-08-22T07:31:05.043Z,1001.25
2018-08-22T07:32:10.066Z,1001.21
2018-08-22T07:33:08.490Z,1001.18
2018-08-22T07:34:10.686Z,1001.25
2018-08-22T07:35:13.238Z,1001.24
2018-08-22T07:36:32.135Z,1001.15
2018-08-22T07:37:30.979Z,1001.16
2018-08-22T07:38:35.237Z,1001.21
2018-08-22T07:39:42.231Z,1001.18
2018-08-22T07:40:50.088Z,1001.16
2018-08-22T07:41:50.424Z,1001.18
2018-08-22T07:42:48.678Z,1001.16
2018-08-22T07:43:47.652Z,1001.24
2018-08-22T07:44:46.437Z,1001.15
2018-08-22T07:45:44.418Z,1001.28
2018-08-22T07:46:43.894Z,1001.18
2018-08-22T07:47:47.065Z,1001.24
2018-08-22T07:48:57.636Z,1001.27
2018-08-22T07:49:55.045Z,1001.3
2018-08-22T07:50:53.844Z,1001.16
2018-08-22T07:51:52.270Z,1001.24
2018-08-22T07:52:52.804Z,1001.21
2018-08-22T07:54:00.446Z,1001.21
2018-08-22T07:54:57.881Z,1001.22
2018-08-22T07:56:01.958Z,1001.15
2018-08-22T07:56:58.426Z,1001.18
2018-08-22T07:58:02.238Z,1001.16
2018-08-22T07:59:02.631Z,1001.15
2018-08-22T08:00:17.885Z,1001.11
2018-08-22T08:01:12.776Z,1001.18
2018-08-22T08:02:12.072Z,1001.12
2018-08-22T08:03:10.821Z,1001.17
2018-08-22T08:04:13.288Z,1001.17
2018-08-22T08:05:10.131Z,1001.21
2018-08-22T08:06:10.650Z,1001.24
2018-08-22T08:07:15.151Z,1001.15
2018-08-22T08:08:14.420Z,1001.24
2018-08-22T08:09:14.705Z,1001.25
2018-08-22T08:10:16.169Z,1001.19
2018-08-22T08:11:16.522Z,1001.15
2018-08-22T08:12:14.776Z,1001.15
2018-08-22T08:13:12.840Z,1001.17
2018-08-22T08:14:13.469Z,1001.14
2018-08-22T08:15:19.612Z,1001.18
2018-08-22T08:16:32.628Z,1001.15
2018-08-22T08:17:33.758Z,1001.21
2018-08-22T08:18:33.784Z,1001.18
2018-08-22T08:19:35.947Z,1001.17
2018-08-22T08:20:36.115Z,1001.19
2018-08-22T08:21:39.962Z,1001.17
2018-08-22T08:22:44.419Z,1001.2
2018-08-22T08:23:45.659Z,1001.21
2018-08-22T08:24:54.620Z,1001.15
2018-08-22T08:25:49.464Z,1001.18
2018-08-22T08:27:03.004Z,1001.12
2018-08-22T08:27:58.398Z,1001.21
2018-08-22T08:28:56.522Z,1001.18
2018-08-22T08:29:58.862Z,1001.24
2018-08-22T08:31:00.121Z,1001.21
2018-08-22T08:32:00.333Z,1001.15
2018-08-22T08:33:00.903Z,1001.18
2018-08-22T08:34:03.055Z,1001.17
2018-08-22T08:35:05.355Z,1001.12
2018-08-22T08:36:06.787Z,1001.21
2018-08-22T08:37:02.415Z,1001.09
2018-08-22T08:38:15.248Z,1001.17
2018-08-22T08:39:09.947Z,1001.14
2018-08-22T08:40:08.164Z,1001.02
2018-08-22T08:41:09.279Z,1001.14
2018-08-22T08:42:08.876Z,1001.12
2018-08-22T08:43:08.968Z,1001.18
2018-08-22T08:44:07.921Z,1001.17
2018-08-22T08:45:06.742Z,1001.15
2018-08-22T08:46:09.158Z,1001.11
2018-08-22T08:47:08.022Z,1001.15
2018-08-22T08:48:04.429Z,1001.14
2018-08-22T08:49:03.868Z,1001.18
2018-08-22T08:50:06.467Z,1001.11
2018-08-22T08:51:06.273Z,1001.15
2018-08-22T08:52:21.315Z,1001.03
2018-08-22T08:53:20.475Z,1001.08
2018-08-22T08:54:20.509Z,1001.05
2018-08-22T08:55:23.055Z,1001.14
2018-08-22T08:56:18.585Z,1001.05
2018-08-22T08:57:21.898Z,1001.05
2018-08-22T08:58:22.257Z,1001.06
2018-08-22T08:59:22.409Z,1001.05
2018-08-22T09:00:23.839Z,1000.97
2018-08-22T09:01:25.999Z,1001.05
2018-08-22T09:02:23.999Z,1001
2018-08-22T09:03:24.319Z,1000.97
2018-08-22T09:04:22.146Z,1001
2018-08-22T09:05:17.280Z,1001
2018-08-22T09:06:30.698Z,1000.96
2018-08-22T09:07:25.085Z,1000.93
2018-08-22T09:08:22.884Z,1001.02
2018-08-22T09:09:20.720Z,1001.03
2018-08-22T09:10:23.621Z,1000.99
2018-08-22T09:11:23.280Z,1001.05
2018-08-22T09:12:25.389Z,1000.99
2018-08-22T09:13:28.112Z,1001
2018-08-22T09:14:30.011Z,1000.96
2018-08-22T09:15:30.645Z,1000.87
2018-08-22T09:16:29.013Z,1000.96
2018-08-22T09:17:30.925Z,1000.91
2018-08-22T09:18:28.511Z,1000.93
2018-08-22T09:19:39.998Z,1000.88
2018-08-22T09:20:35.389Z,1000.99
2018-08-22T09:21:34.452Z,1000.93
2018-08-22T09:22:33.541Z,1000.79
2018-08-22T09:23:31.319Z,1000.94
2018-08-22T09:24:28.737Z,1000.93
2018-08-22T09:25:29.326Z,1000.87
2018-08-22T09:26:32.417Z,1000.9
2018-08-22T09:27:34.654Z,1000.82
2018-08-22T09:28:32.454Z,1000.87
2018-08-22T09:29:35.130Z,1000.87
2018-08-22T09:30:35.748Z,1000.94
2018-08-22T09:31:33.356Z,1000.85
2018-08-22T09:32:30.964Z,1000.81
2018-08-22T09:33:27.670Z,1000.78
2018-08-22T09:34:42.332Z,1000.9
2018-08-22T09:35:37.209Z,1000.87
2018-08-22T09:36:36.456Z,1000.85
2018-08-22T09:37:36.426Z,1000.82
2018-08-22T09:38:36.330Z,1000.79
2018-08-22T09:39:31.752Z,1000.78
2018-08-22T09:40:35.910Z,1000.85
2018-08-22T09:41:41.304Z,1000.87
2018-08-22T09:42:39.993Z,1000.87
2018-08-22T09:43:46.235Z,1000.87
2018-08-22T09:44:46.974Z,1000.85
2018-08-22T09:45:44.967Z,1000.88
2018-08-22T09:46:41.671Z,1000.87
2018-08-22T09:47:41.012Z,1000.82
2018-08-22T09:48:53.184Z,1000.81
2018-08-22T09:49:48.377Z,1000.78
2018-08-22T09:51:01.459Z,1000.87
2018-08-22T09:52:00.113Z,1000.84
2018-08-22T09:53:04.660Z,1000.85
2018-08-22T09:54:02.584Z,1000.9
2018-08-22T09:55:00.623Z,1000.81
2018-08-22T09:55:59.865Z,1000.9
2018-08-22T09:57:03.487Z,1000.76
2018-08-22T09:58:11.717Z,1000.78
2018-08-22T09:59:07.307Z,1000.75
2018-08-22T10:00:04.968Z,1000.73
2018-08-22T10:01:21.053Z,1000.78
2018-08-22T10:02:16.121Z,1000.73
2018-08-22T10:03:19.963Z,1000.64
2018-08-22T10:04:19.502Z,1000.75
2018-08-22T10:05:20.168Z,1000.65
2018-08-22T10:06:18.107Z,1000.65
2018-08-22T10:07:16.052Z,1000.68
2018-08-22T10:08:11.358Z,1000.73
2018-08-22T10:09:14.155Z,1000.73
2018-08-22T10:10:13.679Z,1000.68
2018-08-22T10:11:11.638Z,1000.62
2018-08-22T10:12:15.532Z,1000.75
2018-08-22T10:13:29.476Z,1000.61
2018-08-22T10:14:23.623Z,1000.65
2018-08-22T10:15:22.477Z,1000.67
2018-08-22T10:16:24.560Z,1000.64
2018-08-22T10:17:34.667Z,1000.61
2018-08-22T10:18:32.801Z,1000.7
2018-08-22T10:19:30.314Z,1000.64
2018-08-22T10:20:29.414Z,1000.57
2018-08-22T10:21:27.153Z,1000.68
2018-08-22T10:22:32.867Z,1000.61
2018-08-22T10:23:33.198Z,1000.61
2018-08-22T10:24:32.077Z,1000.57
2018-08-22T10:25:31.219Z,1000.49
2018-08-22T10:26:48.842Z,1000.57
2018-08-22T10:27:44.157Z,1000.6
2018-08-22T10:28:50.861Z,1000.65
2018-08-22T10:29:48.863Z,1000.57
2018-08-22T10:30:50.371Z,1000.52
2018-08-22T10:31:48.615Z,1000.6
2018-08-22T10:32:46.952Z,1000.52
2018-08-22T10:33:46.347Z,1000.6
2018-08-22T10:34:49.954Z,1000.64
2018-08-22T10:35:50.295Z,1000.64
2018-08-22T10:37:02.673Z,1000.57
2018-08-22T10:38:00.102Z,1000.51
2018-08-22T10:38:57.704Z,1000.55
2018-08-22T10:39:55.792Z,1000.57
2018-08-22T10:40:53.784Z,1000.63
2018-08-22T10:41:54.549Z,1000.57
2018-08-22T10:42:53.114Z,1000.54
2018-08-22T10:43:50.881Z,1000.54
2018-08-22T10:44:49.954Z,1000.52
2018-08-22T10:45:49.238Z,1000.49
2018-08-22T10:46:49.233Z,1000.51
2018-08-22T10:47:50.780Z,1000.54
2018-08-22T10:48:59.823Z,1000.51
2018-08-22T10:49:57.907Z,1000.57
2018-08-22T10:50:58.895Z,1000.46
2018-08-22T10:51:57.521Z,1000.45
2018-08-22T10:52:52.037Z,1000.46
2018-08-22T10:53:53.258Z,1000.51
2018-08-22T10:54:50.776Z,1000.48
2018-08-22T10:55:52.856Z,1000.54
2018-08-22T10:56:54.502Z,1000.49
2018-08-22T10:57:54.804Z,1000.51
2018-08-22T10:59:03.869Z,1000.46
2018-08-22T11:00:03.514Z,1000.48
2018-08-22T11:01:02.445Z,1000.43
2018-08-22T11:01:58.846Z,1000.46
2018-08-22T11:03:11.094Z,1000.54
2018-08-22T11:04:10.674Z,1000.52
2018-08-22T11:05:09.493Z,1000.54
2018-08-22T11:06:07.853Z,1000.48
2018-08-22T11:07:06.367Z,1000.45
2018-08-22T11:08:04.656Z,1000.42
2018-08-22T11:09:04.377Z,1000.37
2018-08-22T11:10:04.560Z,1000.37
2018-08-22T11:11:03.812Z,1000.46
2018-08-22T11:12:03.867Z,1000.4
2018-08-22T11:13:02.193Z,1000.33
2018-08-22T11:14:00.952Z,1000.34
2018-08-22T11:15:17.297Z,1000.33
2018-08-22T11:16:14.477Z,1000.36
2018-08-22T11:17:12.528Z,1000.36
2018-08-22T11:18:11.680Z,1000.3
2018-08-22T11:19:11.426Z,1000.34
2018-08-22T11:20:11.352Z,1000.34
2018-08-22T11:21:09.129Z,1000.34
2018-08-22T11:22:09.259Z,1000.25
2018-08-22T11:23:10.160Z,1000.16
2018-08-22T11:24:07.943Z,1000.21
2018-08-22T11:25:06.972Z,1000.27
2018-08-22T11:26:05.660Z,1000.27
2018-08-22T11:27:01.075Z,1000.31
2018-08-22T11:28:01.784Z,1000.25
2018-08-22T11:29:14.856Z,1000.27
2018-08-22T11:30:12.239Z,1000.3
2018-08-22T11:31:11.786Z,1000.22
2018-08-22T11:32:14.816Z,1000.24
2018-08-22T11:33:17.781Z,1000.21
2018-08-22T11:34:16.910Z,1000.3
2018-08-22T11:35:17.559Z,1000.27
2018-08-22T11:36:18.022Z,1000.3
2018-08-22T11:37:19.753Z,1000.24
2018-08-22T11:38:20.136Z,1000.27
2018-08-22T11:39:16.252Z,1000.28
2018-08-22T11:40:21.403Z,1000.31
2018-08-22T11:41:33.748Z,1000.28
2018-08-22T11:42:28.392Z,1000.24
2018-08-22T11:43:33.512Z,1000.33
2018-08-22T11:44:32.901Z,1000.27
2018-08-22T11:45:33.851Z,1000.22
2018-08-22T11:46:32.392Z,1000.3
2018-08-22T11:47:30.254Z,1000.25
2018-08-22T11:48:31.460Z,1000.25
2018-08-22T11:49:30.624Z,1000.33
2018-08-22T11:50:36.702Z,1000.22
2018-08-22T11:51:32.027Z,1000.31
2018-08-22T11:52:37.188Z,1000.27
2018-08-22T11:53:49.329Z,1000.27
2018-08-22T11:54:46.268Z,1000.31
2018-08-22T11:55:44.715Z,1000.22
2018-08-22T11:56:42.384Z,1000.24
2018-08-22T11:57:50.332Z,1000.25
2018-08-22T11:58:48.651Z,1000.28
2018-08-22T11:59:49.452Z,1000.24
2018-08-22T12:00:47.122Z,1000.27
2018-08-22T12:01:47.719Z,1000.24
2018-08-22T12:02:43.025Z,1000.24
2018-08-22T12:03:40.639Z,1000.21
2018-08-22T12:04:57.442Z,1000.3
2018-08-22T12:05:53.248Z,1000.24
2018-08-22T12:06:52.506Z,1000.18
2018-08-22T12:07:51.681Z,1000.15
2018-08-22T12:08:50.265Z,1000.07
2018-08-22T12:09:49.031Z,1000.1
2018-08-22T12:10:49.274Z,1000.1
2018-08-22T12:11:48.444Z,1000.12
2018-08-22T12:12:48.217Z,1000.09
2018-08-22T12:13:47.503Z,1000.06
2018-08-22T12:14:45.264Z,1000.1
2018-08-22T12:15:52.818Z,1000.15
2018-08-22T12:16:55.327Z,1000.1
2018-08-22T12:17:55.146Z,1000.09
2018-08-22T12:18:54.225Z,1000.01
2018-08-22T12:19:56.353Z,1000.01
2018-08-22T12:21:21.962Z,1000.04
2018-08-22T12:22:25.122Z,999.97